| Record Date MM/DD/YYYY | Record Julian Date NNN day of the year | Air Temperature Max (Degrees Fahrenheit F) | Time Max Air Temperature HH:MM:SS This is the time of max air temperature standard time. | Air Temperature Min (Degrees Fahrenheit F) | Time Min Air Temperature HH:MM:SS This is the time of min air temperature standard time. | Air Temperature Observed (Degrees Fahrenheit F) This is an instantaneous reading for air temperature at 7:00:00 standard time. | Relative Humidity Max (Percent) | Time Max Relative Humidity HH:MM:SS This is the time of max relative humidity standard time. | Relative Humidity Min (Percent) | Time Min Relative Humidity HH:MM:SS This is the time of min relative humidity standard time. | Relative Humidity Observed (Percent) This is an instantaneous reading at 7:00:00 standard time. | Precipitation (Inches n.nn) total rain fall that occurred for the day. | Pan Evaporation (Inches n.nn) total evaporation that occured for the day. | Wind Run (Miles) Wind travel for the day. | Wind Speed (Miles Per Hour) Resultant / Average speed for the day. | Wind Direction (Degrees) Resultant Direction for the day | Solar Radiation (Langley's) that occurred for the day. | Soil Temperature Max at 2 inch depth (Degrees Fahrenheit F) that occurred during the day. | Time Max Soil temperature at 2 inches HH:MM:SS This is the time of max 2 inch soil temperature standard time. | Soil Temperature Min at 2 inch depth (Degrees Fahrenheit F) that occurred during the day. | Time Min Soil temperature at 2 inches HH:MM:SS This is the time of min 2 inch soil temperature standard time. | Soil Temperature Observed at 2 inch depth (Degrees Fahrenheit F) This is an instantaneous reading 2 inch soil temperature at 7:00:00 standard time. | Soil Temperature Max at 4 inch depth (Degrees Fahrenheit F) that occurred during the day. | Time Max Soil temperature at 4 inches HH:MM:SS This is the time of max 4 inch soil temperature standard time. | Soil Temperature Min at 4 inch depth (Degrees Fahrenheit F) that occurred during the day. | Time Min Soil temperature at 4 inches HH:MM:SS This is the time of min 4 inch soil temperature standard time. | Soil Temperature Observed at 4 inch depth (Degrees Fahrenheit F) This is an instantaneous reading 4 inch soil temperature at 7:00:00 standard time. | DD50 Degree Days 50 Fahrenheit. | Adjusted DD50 Degree Days 50 Fahrenheit adjusted for latitude. | DD60 Degree Days 60 Fahrenheit. |
|---|---|---|---|---|---|---|---|---|---|---|---|---|---|---|---|---|---|---|---|---|---|---|---|---|---|---|---|---|---|---|
| 04/08/2026 | 98 | 80 | 14:54:01 | 54 | 5:57:05 | 57 | 83 | 0:46:01 | 24 | 15:43:03 | 76 | 0 | 60 | 2.5 | 83 | 546 | 74 | 14:19:01 | 61 | 6:34:04 | 61 | 72 | 15:27:04 | 63 | 7:29:04 | 63 | 17 | 18.12 | 7 | |
| 04/09/2026 | 99 | 81 | 15:14:05 | 53 | 5:31:02 | 60 | 87 | 5:32:05 | 43 | 13:37:00 | 75 | 0 | 55 | 2.3 | 91 | 581 | 75 | 14:06:05 | 61 | 6:41:05 | 61 | 73 | 15:50:01 | 63 | 7:14:00 | 63 | 17 | 18.15 | 7 | |
| 04/10/2026 | 100 | 83 | 14:32:05 | 55 | 5:45:00 | 61 | 89 | 5:48:02 | 39 | 14:34:04 | 82 | 0 | 44 | 1.9 | 91 | 595 | 77 | 14:10:04 | 63 | 6:21:00 | 63 | 74 | 15:15:04 | 64 | 7:07:03 | 64 | 19 | 20.18 | 9 | |
| 04/11/2026 | 101 | 86 | 14:51:00 | 58 | 5:29:03 | 65 | 92 | 5:45:00 | 38 | 13:21:03 | 85 | 0 | 53 | 2.2 | 115 | 568 | 78 | 13:49:05 | 65 | 6:07:00 | 65 | 75 | 14:22:04 | 66 | 6:40:04 | 66 | 22 | 23.21 | 12 | |
| 04/12/2026 | 102 | 85 | 14:03:02 | 59 | 4:41:00 | 65 | 89 | 4:48:00 | 37 | 13:38:04 | 82 | 0 | 133 | 5.6 | 146 | 533 | 78 | 14:08:02 | 65 | 6:21:03 | 65 | 75 | 15:14:01 | 66 | 7:08:01 | 66 | 22 | 23.24 | 12 | |
| 04/13/2026 | 103 | 85 | 15:33:03 | 68 | 4:45:04 | 69 | 86 | 6:32:04 | 52 | 16:40:05 | 85 | 0 | 136 | 5.7 | 152 | 418 | 77 | 14:54:05 | 69 | 6:07:04 | 69 | 76 | 16:03:04 | 69 | 6:36:02 | 69 | 26.5 | 27.27 | 16.5 | |
| 04/14/2026 | 104 | 86 | 14:45:03 | 64 | 5:39:05 | 68 | 91 | 6:08:00 | 47 | 14:49:02 | 87 | 0 | 119 | 5.0 | 152 | 534 | 80 | 13:52:00 | 68 | 6:34:04 | 68 | 77 | 15:15:02 | 69 | 7:02:04 | 69 | 25 | 26.3 | 15 | |
| 04/15/2026 | 105 | 87 | 15:41:04 | 63 | 5:13:00 | 68 | 88 | 5:53:03 | 43 | 13:09:03 | 83 | 0 | 134 | 5.6 | 154 | 593 | 82 | 14:00:05 | 68 | 6:39:02 | 69 | 79 | 14:56:05 | 69 | 6:53:03 | 69 | 25 | 26.33 | 15 | |
| 04/16/2026 | 106 | 87 | 14:19:04 | 63 | 4:46:04 | 68 | 91 | 4:59:02 | 48 | 14:33:03 | 86 | 0 | 82 | 3.4 | 151 | 472 | 81 | 12:37:05 | 70 | 5:01:00 | 70 | 79 | 15:45:03 | 71 | 6:22:05 | 71 | 25 | 26.35 | 15 | |
| 04/17/2026 | 107 | 88 | 14:41:00 | 65 | 5:24:05 | 69 | 93 | 5:43:05 | 47 | 14:17:04 | 91 | 0 | 117 | 4.9 | 148 | 551 | 83 | 14:53:02 | 70 | 5:49:01 | 71 | 81 | 15:40:00 | 71 | 6:17:01 | 71 | 26.5 | 27.38 | 16.5 | |
| 04/18/2026 | 108 | 83 | 10:44:04 | 51 | 22:37:05 | 69 | 91 | 13:42:02 | 59 | 10:45:00 | 83 | 0.18 | 173 | 7.2 | 224 | 240 | 79 | 11:38:03 | 68 | 23:54:05 | 72 | 77 | 12:27:05 | 69 | 23:59:02 | 72 | 17 | 18.41 | 7 | |
| 04/19/2026 | 109 | 71 | 15:04:03 | 49 | 5:21:04 | 52 | 94 | 5:31:00 | 30 | 13:33:03 | 91 | 0 | 88 | 3.7 | 16 | 580 | 78 | 14:19:04 | 64 | 6:39:00 | 64 | 76 | 15:00:02 | 66 | 7:12:02 | 66 | 10 | 11.44 | 0 | |
| 04/20/2026 | 110 | 78 | 15:56:04 | 44 | 5:16:05 | 50 | 94 | 6:29:01 | 30 | 10:32:04 | 93 | 0 | 29 | 1.2 | 87 | 571 | 75 | 13:55:01 | 60 | 6:17:02 | 61 | 73 | 15:41:03 | 62 | 6:59:05 | 62 | 11 | 12.47 | 1 | |
| 04/21/2026 | 111 | 79 | 11:49:01 | 48 | 5:25:00 | 56 | 93 | 6:00:00 | 31 | 11:53:03 | 90 | 0 | 53 | 2.2 | 126 | 374 | 72 | 14:32:03 | 61 | 6:06:00 | 62 | 71 | 15:22:03 | 63 | 7:10:00 | 63 | 13.5 | 14.99 | 3.5 | |
| 04/22/2026 | 112 | 84 | 14:44:02 | 61 | 5:52:04 | 64 | 86 | 2:06:01 | 35 | 13:53:00 | 80 | 0 | 75 | 3.1 | 121 | 530 | 81 | 14:02:05 | 66 | 6:08:04 | 66 | 77 | 15:05:02 | 66 | 6:46:05 | 66 | 22.5 | 24.02 | 12.5 | |
| 04/23/2026 | 113 | 87 | 14:23:03 | 63 | 4:06:04 | 64 | 91 | 6:30:01 | 36 | 14:08:01 | 91 | 0 | 112 | 4.7 | 140 | 595 | 84 | 14:10:02 | 68 | 6:30:02 | 68 | 80 | 15:04:02 | 69 | 7:42:00 | 69 | 25 | 26.55 | 15 | |
| 04/24/2026 | 114 | 85 | 12:15:03 | 64 | 19:35:03 | 68 | 93 | 22:44:00 | 57 | 12:16:03 | 86 | 0.64 | 117 | 4.9 | 128 | 299 | 82 | 12:28:04 | 70 | 5:21:01 | 71 | 78 | 13:28:05 | 71 | 6:31:01 | 71 | 24.5 | 26.07 | 14.5 | |
| 04/25/2026 | 115 | 82 | 14:15:01 | 62 | 5:45:00 | 64 | 97 | 7:08:05 | 60 | 14:17:02 | 97 | 1.11 | 61 | 2.5 | 255 | 507 | 81 | 15:19:01 | 68 | 6:08:02 | 68 | 78 | 16:10:00 | 69 | 7:01:02 | 69 | 22 | 23.6 | 12 | |
| 04/26/2026 | 116 | 86 | 15:55:05 | 61 | 3:58:01 | 65 | 96 | 7:31:01 | 55 | 15:35:05 | 96 | 2.2 | 60 | 2.5 | 126 | 549 | 81 | 14:43:04 | 71 | 6:03:01 | 71 | 79 | 16:09:00 | 71 | 6:43:04 | 71 | 23.5 | 25.12 | 13.5 | |
| 04/27/2026 | 117 | 87 | 12:46:04 | 70 | 4:56:01 | 73 | 92 | 5:07:00 | 64 | 12:47:05 | 87 | 0 | 126 | 5.3 | 151 | 378 | 83 | 13:13:05 | 74 | 5:58:03 | 74 | 80 | 14:37:05 | 74 | 6:26:00 | 74 | 28.5 | 27.65 | 18.5 | |
| 04/28/2026 | 118 | 84 | 12:13:04 | 71 | 15:38:04 | 75 | 94 | 15:36:05 | 68 | 12:17:00 | 84 | 1.08 | 101 | 4.2 | 160 | 264 | 80 | 12:50:04 | 74 | 5:35:04 | 75 | 79 | 13:06:04 | 75 | 6:31:05 | 75 | 27.5 | 27.67 | 17.5 | |
| 04/29/2026 | 119 | 75 | 10:03:02 | 65 | 23:25:03 | 73 | 93 | 10:40:01 | 81 | 12:21:05 | 91 | 0.13 | 103 | 4.3 | 304 | 156 | 77 | 12:55:00 | 73 | 23:57:02 | 74 | 76 | 13:27:01 | 74 | 23:59:00 | 75 | 20 | 21.7 | 10 | |
| 04/30/2026 | 120 | 70 | 14:59:00 | 60 | 20:51:03 | 62 | 92 | 4:28:02 | 62 | 16:04:02 | 87 | 0.22 | 98 | 4.1 | 16 | 278 | 75 | 15:35:01 | 70 | 23:59:01 | 71 | 74 | 16:05:00 | 71 | 23:59:01 | 71 | 15 | 16.72 | 5 | |
| 05/01/2026 | 121 | 61 | 0:00:02 | 56 | 6:35:04 | 57 | 90 | 0:48:04 | 74 | 15:31:00 | 86 | 0.12 | 48 | 2.0 | 11 | 112 | 70 | 0:01:00 | 66 | 0:00:00 | 68 | 71 | 0:00:01 | 67 | 23:59:03 | 69 | 8.5 | 10.24 | 0 | |
| 05/02/2026 | 122 | 71 | 15:55:04 | 53 | 23:53:05 | 58 | 92 | 23:56:02 | 37 | 14:16:00 | 73 | 0 | 94 | 3.9 | 351 | 653 | 78 | 14:46:02 | 65 | 6:30:03 | 65 | 76 | 15:16:05 | 66 | 7:09:02 | 66 | 12 | 13.77 | 2 | |
| 05/03/2026 | 123 | 78 | 16:54:00 | 50 | 4:33:05 | 57 | 94 | 4:42:05 | 40 | 13:05:05 | 79 | 0 | 52 | 2.2 | 185 | 653 | 78 | 13:58:03 | 64 | 6:43:04 | 65 | 76 | 15:19:00 | 66 | 7:21:05 | 66 | 14 | 15.79 | 4 | |
| 05/04/2026 | 124 | 80 | 14:12:04 | 55 | 5:11:02 | 63 | 89 | 2:12:01 | 42 | 11:48:04 | 78 | 0 | 118 | 4.9 | 187 | 643 | 78 | 14:37:05 | 66 | 6:05:01 | 66 | 77 | 14:55:00 | 67 | 6:51:01 | 67 | 17.5 | 19.31 | 7.5 | |
| 05/05/2026 | 125 | 79 | 15:57:03 | 59 | 4:57:03 | 65 | 85 | 0:00:00 | 70 | 11:55:05 | 79 | 0 | 122 | 5.1 | 151 | 221 | 74 | 16:31:05 | 68 | 5:52:01 | 68 | 73 | 17:14:05 | 69 | 6:53:02 | 69 | 19 | 20.83 | 9 | |
| 05/06/2026 | 126 | 78 | 9:28:01 | 57 | 21:39:02 | 73 | 93 | 21:53:01 | 76 | 11:26:03 | 86 | 0.37 | 150 | 6.3 | 300 | 161 | 74 | 11:32:00 | 68 | 23:59:00 | 71 | 73 | 11:50:02 | 69 | 23:59:00 | 71 | 17.5 | 19.35 | 7.5 | |
| 05/07/2026 | 127 | 73 | 15:28:02 | 56 | 5:16:04 | 57 | 92 | 1:30:01 | 50 | 14:20:02 | 88 | 0 | 103 | 4.3 | 4 | 581 | 79 | 14:30:04 | 66 | 7:19:04 | 66 | 77 | 15:30:04 | 67 | 7:37:02 | 67 | 14.5 | 16.37 | 4.5 | |
| Average | 80.63 | 58.57 | 63.83 | 91 | 49.17 | 85.23 | 0.2 | 93.87 | 457.87 | 78.13 | 67 | 67.6 | 76.07 | 68.07 | 68.33 | 19.6 | 20.95 | 9.65 | ||||||||||||
| Total | 6.05 | 588 | 628.6 | 289.5 |